sensor_id;sensor_type;location;lat;lon;timestamp;pressure;altitude;pressure_sealevel;temperature;humidity
75855;BME280;64502;59.976;30.316;2023-04-06T00:01:25;102692.38;;;3.82;74.48
75855;BME280;64502;59.976;30.316;2023-04-06T00:03:51;102688.88;;;3.82;74.14
75855;BME280;64502;59.976;30.316;2023-04-06T00:06:16;102684.53;;;3.81;74.36
75855;BME280;64502;59.976;30.316;2023-04-06T00:08:42;102688.03;;;3.80;73.83
75855;BME280;64502;59.976;30.316;2023-04-06T00:11:08;102676.69;;;3.79;73.99
75855;BME280;64502;59.976;30.316;2023-04-06T00:13:33;102684.53;;;3.76;73.65
75855;BME280;64502;59.976;30.316;2023-04-06T00:15:59;102677.56;;;3.73;74.17
75855;BME280;64502;59.976;30.316;2023-04-06T00:18:24;102689.75;;;3.74;73.91
75855;BME280;64502;59.976;30.316;2023-04-06T00:20:50;102689.75;;;3.73;73.83
75855;BME280;64502;59.976;30.316;2023-04-06T00:23:16;102686.25;;;3.69;73.85
75855;BME280;64502;59.976;30.316;2023-04-06T00:25:41;102685.41;;;3.69;74.32
75855;BME280;64502;59.976;30.316;2023-04-06T00:28:07;102682.78;;;3.67;74.98
75855;BME280;64502;59.976;30.316;2023-04-06T00:30:32;102682.78;;;3.66;75.10
75855;BME280;64502;59.976;30.316;2023-04-06T00:32:58;102678.44;;;3.63;74.54
75855;BME280;64502;59.976;30.316;2023-04-06T00:35:24;102680.16;;;3.61;75.16
75855;BME280;64502;59.976;30.316;2023-04-06T00:37:49;102683.63;;;3.62;74.76
75855;BME280;64502;59.976;30.316;2023-04-06T00:40:15;102679.28;;;3.62;75.58
75855;BME280;64502;59.976;30.316;2023-04-06T00:42:41;102683.63;;;3.62;75.18
75855;BME280;64502;59.976;30.316;2023-04-06T00:45:07;102675.81;;;3.60;75.17
75855;BME280;64502;59.976;30.316;2023-04-06T00:47:33;102678.41;;;3.62;75.46
75855;BME280;64502;59.976;30.316;2023-04-06T00:49:59;102671.47;;;3.61;75.32
75855;BME280;64502;59.976;30.316;2023-04-06T00:52:25;102671.47;;;3.61;74.68
75855;BME280;64502;59.976;30.316;2023-04-06T00:54:50;102679.28;;;3.59;75.20
75855;BME280;64502;59.976;30.316;2023-04-06T00:57:16;102680.16;;;3.58;75.42
75855;BME280;64502;59.976;30.316;2023-04-06T00:59:42;102684.50;;;3.59;75.59
75855;BME280;64502;59.976;30.316;2023-04-06T01:02:08;102691.47;;;3.55;75.44
75855;BME280;64502;59.976;30.316;2023-04-06T01:04:34;102690.56;;;3.53;75.59
75855;BME280;64502;59.976;30.316;2023-04-06T01:07:00;102686.22;;;3.48;75.60
75855;BME280;64502;59.976;30.316;2023-04-06T01:09:29;102686.19;;;3.46;75.87
75855;BME280;64502;59.976;30.316;2023-04-06T01:11:56;102685.34;;;3.44;75.50
75855;BME280;64502;59.976;30.316;2023-04-06T01:14:23;102690.53;;;3.46;76.21
75855;BME280;64502;59.976;30.316;2023-04-06T01:16:48;102685.34;;;3.47;75.45
75855;BME280;64502;59.976;30.316;2023-04-06T01:19:14;102689.69;;;3.48;75.27
75855;BME280;64502;59.976;30.316;2023-04-06T01:21:41;102692.31;;;3.47;75.25
75855;BME280;64502;59.976;30.316;2023-04-06T01:24:07;102694.00;;;3.46;76.00
75855;BME280;64502;59.976;30.316;2023-04-06T01:26:33;102694.03;;;3.48;76.01
75855;BME280;64502;59.976;30.316;2023-04-06T01:28:58;102700.13;;;3.50;76.31
75855;BME280;64502;59.976;30.316;2023-04-06T01:31:24;102695.78;;;3.50;76.29
75855;BME280;64502;59.976;30.316;2023-04-06T01:33:50;102697.53;;;3.50;75.71
75855;BME280;64502;59.976;30.316;2023-04-06T01:36:16;102695.78;;;3.50;76.23
75855;BME280;64502;59.976;30.316;2023-04-06T01:38:41;102695.78;;;3.47;76.38
75855;BME280;64502;59.976;30.316;2023-04-06T01:41:08;102698.41;;;3.50;76.16
75855;BME280;64502;59.976;30.316;2023-04-06T01:43:33;102701.03;;;3.55;76.41
75855;BME280;64502;59.976;30.316;2023-04-06T01:45:59;102704.53;;;3.60;75.72
75855;BME280;64502;59.976;30.316;2023-04-06T01:48:26;102699.31;;;3.66;76.08
75855;BME280;64502;59.976;30.316;2023-04-06T01:50:52;102702.81;;;3.68;76.06
75855;BME280;64502;59.976;30.316;2023-04-06T01:53:17;102702.78;;;3.70;75.37
75855;BME280;64502;59.976;30.316;2023-04-06T01:55:42;102706.28;;;3.72;75.32
75855;BME280;64502;59.976;30.316;2023-04-06T01:58:08;102703.66;;;3.70;74.97
75855;BME280;64502;59.976;30.316;2023-04-06T02:00:33;102707.16;;;3.69;76.02
75855;BME280;64502;59.976;30.316;2023-04-06T02:02:59;102704.53;;;3.63;76.21
75855;BME280;64502;59.976;30.316;2023-04-06T02:05:25;102707.13;;;3.65;76.12
75855;BME280;64502;59.976;30.316;2023-04-06T02:07:51;102698.44;;;3.64;76.07
75855;BME280;64502;59.976;30.316;2023-04-06T02:10:17;102707.16;;;3.63;76.38
75855;BME280;64502;59.976;30.316;2023-04-06T02:12:42;102703.63;;;3.63;76.80
75855;BME280;64502;59.976;30.316;2023-04-06T02:15:08;102705.38;;;3.59;76.42
75855;BME280;64502;59.976;30.316;2023-04-06T02:17:34;102710.63;;;3.61;76.23
75855;BME280;64502;59.976;30.316;2023-04-06T02:19:59;102698.44;;;3.61;76.88
75855;BME280;64502;59.976;30.316;2023-04-06T02:22:24;102699.28;;;3.59;77.42
75855;BME280;64502;59.976;30.316;2023-04-06T02:24:50;102699.28;;;3.52;77.50
75855;BME280;64502;59.976;30.316;2023-04-06T02:27:15;102701.03;;;3.52;77.51
75855;BME280;64502;59.976;30.316;2023-04-06T02:29:41;102705.34;;;3.54;77.00
75855;BME280;64502;59.976;30.316;2023-04-06T02:32:06;102707.13;;;3.59;77.70
75855;BME280;64502;59.976;30.316;2023-04-06T02:34:32;102706.25;;;3.63;77.22
75855;BME280;64502;59.976;30.316;2023-04-06T02:36:57;102713.22;;;3.64;76.48
75855;BME280;64502;59.976;30.316;2023-04-06T02:39:23;102709.75;;;3.65;77.06
75855;BME280;64502;59.976;30.316;2023-04-06T02:41:48;102710.63;;;3.64;77.49
75855;BME280;64502;59.976;30.316;2023-04-06T02:44:14;102715.81;;;3.65;76.81
75855;BME280;64502;59.976;30.316;2023-04-06T02:46:39;102717.56;;;3.65;77.14
75855;BME280;64502;59.976;30.316;2023-04-06T02:49:05;102718.44;;;3.65;76.78
75855;BME280;64502;59.976;30.316;2023-04-06T02:51:30;102723.66;;;3.62;77.21
75855;BME280;64502;59.976;30.316;2023-04-06T02:53:56;102724.53;;;3.63;77.50
75855;BME280;64502;59.976;30.316;2023-04-06T02:56:22;102728.88;;;3.64;77.16
75855;BME280;64502;59.976;30.316;2023-04-06T02:58:47;102729.75;;;3.64;77.28
75855;BME280;64502;59.976;30.316;2023-04-06T03:01:13;102731.50;;;3.64;77.48
75855;BME280;64502;59.976;30.316;2023-04-06T03:03:38;102723.66;;;3.58;76.69
75855;BME280;64502;59.976;30.316;2023-04-06T03:06:04;102721.91;;;3.56;76.69
75855;BME280;64502;59.976;30.316;2023-04-06T03:08:29;102725.38;;;3.57;77.42
75855;BME280;64502;59.976;30.316;2023-04-06T03:10:55;102721.91;;;3.58;76.85
75855;BME280;64502;59.976;30.316;2023-04-06T03:13:21;102726.25;;;3.59;76.90
75855;BME280;64502;59.976;30.316;2023-04-06T03:15:46;102728.00;;;3.59;77.63
75855;BME280;64502;59.976;30.316;2023-04-06T03:18:12;102721.06;;;3.58;77.23
75855;BME280;64502;59.976;30.316;2023-04-06T03:20:38;102722.75;;;3.57;77.19
75855;BME280;64502;59.976;30.316;2023-04-06T03:23:03;102728.00;;;3.59;77.75
75855;BME280;64502;59.976;30.316;2023-04-06T03:25:29;102721.03;;;3.59;77.08
75855;BME280;64502;59.976;30.316;2023-04-06T03:27:55;102729.75;;;3.61;77.57
75855;BME280;64502;59.976;30.316;2023-04-06T03:30:21;102728.88;;;3.62;76.94
75855;BME280;64502;59.976;30.316;2023-04-06T03:32:46;102735.84;;;3.63;77.12
75855;BME280;64502;59.976;30.316;2023-04-06T03:35:11;102728.88;;;3.62;77.45
75855;BME280;64502;59.976;30.316;2023-04-06T03:37:37;102727.13;;;3.60;77.15
75855;BME280;64502;59.976;30.316;2023-04-06T03:40:04;102730.59;;;3.57;77.47
75855;BME280;64502;59.976;30.316;2023-04-06T03:42:30;102742.78;;;3.56;77.24
75855;BME280;64502;59.976;30.316;2023-04-06T03:44:56;102742.78;;;3.55;77.60
75855;BME280;64502;59.976;30.316;2023-04-06T03:47:21;102743.63;;;3.54;76.94
75855;BME280;64502;59.976;30.316;2023-04-06T03:49:47;102744.50;;;3.54;77.75
75855;BME280;64502;59.976;30.316;2023-04-06T03:52:12;102754.97;;;3.56;77.51
75855;BME280;64502;59.976;30.316;2023-04-06T03:54:37;102748.00;;;3.56;76.90
75855;BME280;64502;59.976;30.316;2023-04-06T03:57:04;102759.31;;;3.59;76.82
75855;BME280;64502;59.976;30.316;2023-04-06T03:59:29;102749.75;;;3.58;77.30
75855;BME280;64502;59.976;30.316;2023-04-06T04:01:55;102752.34;;;3.54;76.72
75855;BME280;64502;59.976;30.316;2023-04-06T04:04:21;102752.34;;;3.54;76.89
75855;BME280;64502;59.976;30.316;2023-04-06T04:06:46;102753.22;;;3.50;77.09
75855;BME280;64502;59.976;30.316;2023-04-06T04:09:12;102754.03;;;3.46;77.54
75855;BME280;64502;59.976;30.316;2023-04-06T04:11:37;102757.53;;;3.45;77.89
75855;BME280;64502;59.976;30.316;2023-04-06T04:14:03;102761.00;;;3.46;76.78
75855;BME280;64502;59.976;30.316;2023-04-06T04:16:28;102753.19;;;3.47;77.64
75855;BME280;64502;59.976;30.316;2023-04-06T04:18:54;102755.81;;;3.47;77.45
75855;BME280;64502;59.976;30.316;2023-04-06T04:21:20;102760.16;;;3.48;77.66
75855;BME280;64502;59.976;30.316;2023-04-06T04:23:45;102767.13;;;3.51;77.21
75855;BME280;64502;59.976;30.316;2023-04-06T04:26:11;102766.28;;;3.52;76.69
75855;BME280;64502;59.976;30.316;2023-04-06T04:28:36;102774.97;;;3.55;77.19
75855;BME280;64502;59.976;30.316;2023-04-06T04:31:02;102768.88;;;3.60;76.61
75855;BME280;64502;59.976;30.316;2023-04-06T04:33:27;102772.38;;;3.59;77.35
75855;BME280;64502;59.976;30.316;2023-04-06T04:35:52;102774.09;;;3.60;77.29
75855;BME280;64502;59.976;30.316;2023-04-06T04:38:18;102777.59;;;3.62;77.30
75855;BME280;64502;59.976;30.316;2023-04-06T04:40:43;102773.25;;;3.62;76.55
75855;BME280;64502;59.976;30.316;2023-04-06T04:43:09;102766.31;;;3.64;77.38
75855;BME280;64502;59.976;30.316;2023-04-06T04:45:35;102772.41;;;3.68;77.04
75855;BME280;64502;59.976;30.316;2023-04-06T04:48:00;102772.41;;;3.63;77.19
75855;BME280;64502;59.976;30.316;2023-04-06T04:50:26;102776.72;;;3.60;78.42
75855;BME280;64502;59.976;30.316;2023-04-06T04:52:51;102778.47;;;3.62;77.72
75855;BME280;64502;59.976;30.316;2023-04-06T04:55:17;102782.84;;;3.60;78.00
75855;BME280;64502;59.976;30.316;2023-04-06T04:57:43;102776.72;;;3.60;77.56
75855;BME280;64502;59.976;30.316;2023-04-06T05:00:09;102785.47;;;3.66;77.77
75855;BME280;64502;59.976;30.316;2023-04-06T05:02:34;102774.16;;;3.69;77.11
75855;BME280;64502;59.976;30.316;2023-04-06T05:05:00;102775.00;;;3.68;77.43
75855;BME280;64502;59.976;30.316;2023-04-06T05:07:26;102783.72;;;3.67;77.85
75855;BME280;64502;59.976;30.316;2023-04-06T05:09:51;102783.72;;;3.64;77.68
75855;BME280;64502;59.976;30.316;2023-04-06T05:12:18;102780.25;;;3.63;77.82
75855;BME280;64502;59.976;30.316;2023-04-06T05:14:44;102781.09;;;3.64;76.69
75855;BME280;64502;59.976;30.316;2023-04-06T05:17:09;102784.59;;;3.67;76.88
75855;BME280;64502;59.976;30.316;2023-04-06T05:19:35;102782.84;;;3.71;76.62
75855;BME280;64502;59.976;30.316;2023-04-06T05:22:00;102779.38;;;3.73;76.08
75855;BME280;64502;59.976;30.316;2023-04-06T05:24:26;102782.00;;;3.78;76.52
75855;BME280;64502;59.976;30.316;2023-04-06T05:26:51;102786.38;;;3.81;76.26
75855;BME280;64502;59.976;30.316;2023-04-06T05:29:18;102795.97;;;3.83;76.48
75855;BME280;64502;59.976;30.316;2023-04-06T05:31:43;102792.47;;;3.84;76.10
75855;BME280;64502;59.976;30.316;2023-04-06T05:34:09;102795.09;;;3.83;76.23
75855;BME280;64502;59.976;30.316;2023-04-06T05:36:34;102788.09;;;3.78;76.07
75855;BME280;64502;59.976;30.316;2023-04-06T05:39:00;102789.84;;;3.78;75.93
75855;BME280;64502;59.976;30.316;2023-04-06T05:41:25;102788.97;;;3.73;76.48
75855;BME280;64502;59.976;30.316;2023-04-06T05:43:51;102791.56;;;3.73;75.91
75855;BME280;64502;59.976;30.316;2023-04-06T05:46:18;102788.97;;;3.76;76.34
75855;BME280;64502;59.976;30.316;2023-04-06T05:48:44;102787.25;;;3.84;76.56
75855;BME280;64502;59.976;30.316;2023-04-06T05:51:10;102786.41;;;3.88;76.26
75855;BME280;64502;59.976;30.316;2023-04-06T05:53:36;102792.53;;;3.96;75.85
75855;BME280;64502;59.976;30.316;2023-04-06T05:56:02;102782.94;;;3.95;75.71
75855;BME280;64502;59.976;30.316;2023-04-06T05:58:28;102788.16;;;3.95;75.62
75855;BME280;64502;59.976;30.316;2023-04-06T06:01:00;102791.66;;;3.99;75.40
75855;BME280;64502;59.976;30.316;2023-04-06T06:03:26;102795.13;;;3.98;75.65
75855;BME280;64502;59.976;30.316;2023-04-06T06:05:52;102793.41;;;4.00;75.40
75855;BME280;64502;59.976;30.316;2023-04-06T06:08:17;102790.81;;;4.05;75.05
75855;BME280;64502;59.976;30.316;2023-04-06T06:10:43;102785.59;;;4.12;75.16
75855;BME280;64502;59.976;30.316;2023-04-06T06:13:09;102796.03;;;4.20;75.07
75855;BME280;64502;59.976;30.316;2023-04-06T06:15:34;102796.06;;;4.25;74.86
75855;BME280;64502;59.976;30.316;2023-04-06T06:18:00;102803.91;;;4.29;74.41
75855;BME280;64502;59.976;30.316;2023-04-06T06:20:26;102797.81;;;4.30;74.46
75855;BME280;64502;59.976;30.316;2023-04-06T06:22:51;102799.53;;;4.25;75.21
75855;BME280;64502;59.976;30.316;2023-04-06T06:25:17;102796.94;;;4.23;74.43
75855;BME280;64502;59.976;30.316;2023-04-06T06:27:43;102797.81;;;4.15;74.96
75855;BME280;64502;59.976;30.316;2023-04-06T06:30:08;102798.66;;;4.14;75.53
75855;BME280;64502;59.976;30.316;2023-04-06T06:32:34;102801.25;;;4.11;75.75
75855;BME280;64502;59.976;30.316;2023-04-06T06:35:00;102798.66;;;4.08;74.67
75855;BME280;64502;59.976;30.316;2023-04-06T06:37:25;102803.88;;;4.08;75.45
75855;BME280;64502;59.976;30.316;2023-04-06T06:39:50;102803.88;;;4.08;74.72
75855;BME280;64502;59.976;30.316;2023-04-06T06:42:16;102806.50;;;4.12;74.85
75855;BME280;64502;59.976;30.316;2023-04-06T06:44:41;102804.78;;;4.20;74.80
75855;BME280;64502;59.976;30.316;2023-04-06T06:47:07;102814.34;;;4.28;74.76
75855;BME280;64502;59.976;30.316;2023-04-06T06:49:32;102808.28;;;4.35;74.67
75855;BME280;64502;59.976;30.316;2023-04-06T06:51:58;102813.53;;;4.42;73.40
75855;BME280;64502;59.976;30.316;2023-04-06T06:54:23;102807.41;;;4.47;73.88
75855;BME280;64502;59.976;30.316;2023-04-06T06:56:49;102813.50;;;4.52;73.45
75855;BME280;64502;59.976;30.316;2023-04-06T06:59:15;102816.13;;;4.58;73.33
75855;BME280;64502;59.976;30.316;2023-04-06T07:01:41;102815.28;;;4.62;73.18
75855;BME280;64502;59.976;30.316;2023-04-06T07:04:07;102817.91;;;4.70;73.66
75855;BME280;64502;59.976;30.316;2023-04-06T07:06:35;102824.88;;;4.75;72.73
75855;BME280;64502;59.976;30.316;2023-04-06T07:09:00;102817.91;;;4.80;72.63
75855;BME280;64502;59.976;30.316;2023-04-06T07:11:26;102818.75;;;4.84;72.66
75855;BME280;64502;59.976;30.316;2023-04-06T07:13:51;102815.25;;;4.85;72.50
75855;BME280;64502;59.976;30.316;2023-04-06T07:16:17;102823.09;;;4.89;72.15
75855;BME280;64502;59.976;30.316;2023-04-06T07:18:42;102815.25;;;4.96;72.01
75855;BME280;64502;59.976;30.316;2023-04-06T07:21:08;102817.88;;;5.03;72.05
75855;BME280;64502;59.976;30.316;2023-04-06T07:23:33;102818.72;;;5.10;71.75
75855;BME280;64502;59.976;30.316;2023-04-06T07:25:59;102811.75;;;5.17;70.93
75855;BME280;64502;59.976;30.316;2023-04-06T07:28:24;102812.59;;;5.23;71.16
75855;BME280;64502;59.976;30.316;2023-04-06T07:30:50;102812.59;;;5.32;71.39
75855;BME280;64502;59.976;30.316;2023-04-06T07:33:16;102824.78;;;5.35;70.65
75855;BME280;64502;59.976;30.316;2023-04-06T07:35:41;102823.88;;;5.44;70.76
75855;BME280;64502;59.976;30.316;2023-04-06T07:38:07;102819.50;;;5.52;70.07
75855;BME280;64502;59.976;30.316;2023-04-06T07:40:32;102820.34;;;5.60;69.55
75855;BME280;64502;59.976;30.316;2023-04-06T07:42:58;102824.66;;;5.67;69.86
75855;BME280;64502;59.976;30.316;2023-04-06T07:45:23;102826.41;;;5.76;70.34
75855;BME280;64502;59.976;30.316;2023-04-06T07:47:49;102828.09;;;5.83;68.17
75855;BME280;64502;59.976;30.316;2023-04-06T07:50:15;102826.34;;;5.88;68.66
75855;BME280;64502;59.976;30.316;2023-04-06T07:52:40;102819.34;;;5.89;69.12
75855;BME280;64502;59.976;30.316;2023-04-06T07:55:06;102828.06;;;5.86;68.90
75855;BME280;64502;59.976;30.316;2023-04-06T07:57:32;102824.66;;;5.76;69.13
75855;BME280;64502;59.976;30.316;2023-04-06T07:59:57;102829.03;;;5.76;68.37
75855;BME280;64502;59.976;30.316;2023-04-06T08:02:23;102832.47;;;5.83;68.59
75855;BME280;64502;59.976;30.316;2023-04-06T08:04:48;102828.94;;;5.88;69.53
75855;BME280;64502;59.976;30.316;2023-04-06T08:07:14;102829.84;;;5.95;68.60
75855;BME280;64502;59.976;30.316;2023-04-06T08:09:39;102835.03;;;6.06;68.61
75855;BME280;64502;59.976;30.316;2023-04-06T08:12:05;102835.84;;;6.15;67.10
75855;BME280;64502;59.976;30.316;2023-04-06T08:14:30;102826.19;;;6.22;69.15
75855;BME280;64502;59.976;30.316;2023-04-06T08:16:56;102827.88;;;6.31;67.70
75855;BME280;64502;59.976;30.316;2023-04-06T08:19:22;102834.88;;;6.32;67.73
75855;BME280;64502;59.976;30.316;2023-04-06T08:21:47;102829.63;;;6.29;67.11
75855;BME280;64502;59.976;30.316;2023-04-06T08:24:13;102832.28;;;6.30;67.57
75855;BME280;64502;59.976;30.316;2023-04-06T08:26:39;102834.00;;;6.27;68.57
75855;BME280;64502;59.976;30.316;2023-04-06T08:29:05;102835.81;;;6.20;67.96
75855;BME280;64502;59.976;30.316;2023-04-06T08:31:33;102837.63;;;6.07;67.32
75855;BME280;64502;59.976;30.316;2023-04-06T08:33:59;102848.16;;;6.01;67.30
75855;BME280;64502;59.976;30.316;2023-04-06T08:36:24;102852.53;;;6.00;68.30
75855;BME280;64502;59.976;30.316;2023-04-06T08:38:50;102842.94;;;5.98;68.22
75855;BME280;64502;59.976;30.316;2023-04-06T08:41:16;102844.69;;;5.90;67.63
75855;BME280;64502;59.976;30.316;2023-04-06T08:43:46;102853.41;;;5.89;68.13
75855;BME280;64502;59.976;30.316;2023-04-06T08:46:12;102851.66;;;5.97;68.35
75855;BME280;64502;59.976;30.316;2023-04-06T08:48:40;102851.56;;;6.11;67.32
75855;BME280;64502;59.976;30.316;2023-04-06T08:51:06;102848.91;;;6.23;68.39
75855;BME280;64502;59.976;30.316;2023-04-06T08:53:31;102848.81;;;6.37;67.55
75855;BME280;64502;59.976;30.316;2023-04-06T08:55:58;102848.72;;;6.52;65.75
75855;BME280;64502;59.976;30.316;2023-04-06T08:58:25;102851.25;;;6.66;66.23
75855;BME280;64502;59.976;30.316;2023-04-06T09:00:53;102856.38;;;6.78;66.40
75855;BME280;64502;59.976;30.316;2023-04-06T09:03:20;102855.53;;;6.78;66.78
75855;BME280;64502;59.976;30.316;2023-04-06T09:05:46;102854.63;;;6.80;66.55
75855;BME280;64502;59.976;30.316;2023-04-06T09:08:12;102848.47;;;6.84;65.45
75855;BME280;64502;59.976;30.316;2023-04-06T09:10:41;102852.75;;;6.96;65.49
75855;BME280;64502;59.976;30.316;2023-04-06T09:13:08;102854.41;;;7.03;65.21
75855;BME280;64502;59.976;30.316;2023-04-06T09:15:34;102856.97;;;7.13;65.51
75855;BME280;64502;59.976;30.316;2023-04-06T09:18:00;102849.91;;;7.19;64.74
75855;BME280;64502;59.976;30.316;2023-04-06T09:20:26;102861.22;;;7.26;65.46
75855;BME280;64502;59.976;30.316;2023-04-06T09:22:54;102853.38;;;7.21;63.55
75855;BME280;64502;59.976;30.316;2023-04-06T09:25:21;102856.19;;;7.04;64.29
75855;BME280;64502;59.976;30.316;2023-04-06T09:27:48;102859.72;;;6.99;64.91
75855;BME280;64502;59.976;30.316;2023-04-06T09:30:15;102861.41;;;7.06;64.91
75855;BME280;64502;59.976;30.316;2023-04-06T09:35:13;102856.81;;;7.29;63.55
75855;BME280;64502;59.976;30.316;2023-04-06T09:37:39;102854.03;;;7.43;63.82
75855;BME280;64502;59.976;30.316;2023-04-06T09:40:05;102858.28;;;7.55;62.96
75855;BME280;64502;59.976;30.316;2023-04-06T09:42:31;102852.94;;;7.64;64.22
75855;BME280;64502;59.976;30.316;2023-04-06T09:44:57;102856.31;;;7.75;63.18
75855;BME280;64502;59.976;30.316;2023-04-06T09:47:23;102848.34;;;7.80;63.11
75855;BME280;64502;59.976;30.316;2023-04-06T09:49:50;102857.91;;;7.87;62.58
75855;BME280;64502;59.976;30.316;2023-04-06T09:52:21;102852.72;;;7.79;62.44
75855;BME280;64502;59.976;30.316;2023-04-06T09:54:50;102856.38;;;7.68;62.70
75855;BME280;64502;59.976;30.316;2023-04-06T10:00:04;102856.59;;;7.51;63.89
75855;BME280;64502;59.976;30.316;2023-04-06T10:05:20;102851.47;;;7.36;63.80
75855;BME280;64502;59.976;30.316;2023-04-06T10:07:48;102853.13;;;7.44;64.04
75855;BME280;64502;59.976;30.316;2023-04-06T10:10:16;102853.75;;;7.66;64.96
75855;BME280;64502;59.976;30.316;2023-04-06T10:12:42;102859.03;;;7.66;63.10
75855;BME280;64502;59.976;30.316;2023-04-06T10:15:08;102852.13;;;7.59;62.67
75855;BME280;64502;59.976;30.316;2023-04-06T10:17:34;102852.00;;;7.70;63.33
75855;BME280;64502;59.976;30.316;2023-04-06T10:20:10;102847.38;;;7.87;63.13
75855;BME280;64502;59.976;30.316;2023-04-06T10:22:43;102852.41;;;8.04;62.21
75855;BME280;64502;59.976;30.316;2023-04-06T10:25:09;102849.28;;;8.44;61.91
75855;BME280;64502;59.976;30.316;2023-04-06T10:27:35;102855.66;;;8.85;61.66
75855;BME280;64502;59.976;30.316;2023-04-06T10:30:05;102851.94;;;9.45;60.49
75855;BME280;64502;59.976;30.316;2023-04-06T10:32:36;102842.41;;;10.23;57.30
75855;BME280;64502;59.976;30.316;2023-04-06T10:35:09;102834.66;;;11.24;56.73
75855;BME280;64502;59.976;30.316;2023-04-06T10:37:52;102833.41;;;12.28;55.38
75855;BME280;64502;59.976;30.316;2023-04-06T10:40:27;102832.53;;;13.34;52.78
75855;BME280;64502;59.976;30.316;2023-04-06T10:42:53;102819.34;;;14.47;48.00
75855;BME280;64502;59.976;30.316;2023-04-06T10:45:24;102820.50;;;15.64;47.06
75855;BME280;64502;59.976;30.316;2023-04-06T10:47:53;102815.97;;;16.59;43.41
75855;BME280;64502;59.976;30.316;2023-04-06T10:50:19;102811.59;;;17.28;42.40
75855;BME280;64502;59.976;30.316;2023-04-06T10:52:46;102806.59;;;17.71;39.90
75855;BME280;64502;59.976;30.316;2023-04-06T10:55:13;102801.88;;;18.08;37.93
75855;BME280;64502;59.976;30.316;2023-04-06T10:57:40;102809.03;;;18.23;39.70
75855;BME280;64502;59.976;30.316;2023-04-06T11:00:06;102801.09;;;18.68;38.39
75855;BME280;64502;59.976;30.316;2023-04-06T11:02:34;102796.25;;;19.04;37.40
75855;BME280;64502;59.976;30.316;2023-04-06T11:05:00;102795.00;;;19.53;36.88
75855;BME280;64502;59.976;30.316;2023-04-06T11:07:26;102793.47;;;19.78;35.91
75855;BME280;64502;59.976;30.316;2023-04-06T11:09:54;102793.84;;;20.27;35.05
75855;BME280;64502;59.976;30.316;2023-04-06T11:12:22;102790.41;;;20.65;34.88
75855;BME280;64502;59.976;30.316;2023-04-06T11:15:02;102784.78;;;21.08;38.09
75855;BME280;64502;59.976;30.316;2023-04-06T11:17:35;102790.53;;;20.36;34.44
75855;BME280;64502;59.976;30.316;2023-04-06T11:20:01;102791.31;;;20.38;34.13
75855;BME280;64502;59.976;30.316;2023-04-06T11:22:28;102789.53;;;19.83;33.93
75855;BME280;64502;59.976;30.316;2023-04-06T11:25:07;102790.22;;;19.87;37.91
75855;BME280;64502;59.976;30.316;2023-04-06T11:27:36;102784.06;;;19.99;35.05
75855;BME280;64502;59.976;30.316;2023-04-06T11:30:02;102782.41;;;20.11;33.95
75855;BME280;64502;59.976;30.316;2023-04-06T11:32:28;102779.56;;;20.00;33.69
75855;BME280;64502;59.976;30.316;2023-04-06T11:34:53;102768.97;;;20.65;33.24
75855;BME280;64502;59.976;30.316;2023-04-06T11:37:19;102767.38;;;21.26;32.44
75855;BME280;64502;59.976;30.316;2023-04-06T11:39:50;102772.72;;;22.02;32.61
75855;BME280;64502;59.976;30.316;2023-04-06T11:42:27;102763.41;;;22.43;32.37
75855;BME280;64502;59.976;30.316;2023-04-06T11:45:00;102764.69;;;22.37;32.30
75855;BME280;64502;59.976;30.316;2023-04-06T11:47:32;102771.34;;;22.44;30.90
75855;BME280;64502;59.976;30.316;2023-04-06T11:50:09;102765.13;;;22.55;31.90
75855;BME280;64502;59.976;30.316;2023-04-06T11:52:35;102767.00;;;22.30;30.16
75855;BME280;64502;59.976;30.316;2023-04-06T11:55:11;102764.09;;;22.80;31.80
75855;BME280;64502;59.976;30.316;2023-04-06T11:57:36;102760.09;;;22.97;29.23
75855;BME280;64502;59.976;30.316;2023-04-06T12:00:02;102770.41;;;23.03;28.86
75855;BME280;64502;59.976;30.316;2023-04-06T12:02:28;102766.31;;;22.86;28.30
75855;BME280;64502;59.976;30.316;2023-04-06T12:04:53;102764.91;;;23.16;28.25
75855;BME280;64502;59.976;30.316;2023-04-06T12:07:19;102766.63;;;23.06;27.61
75855;BME280;64502;59.976;30.316;2023-04-06T12:09:44;102763.34;;;23.36;28.01
75855;BME280;64502;59.976;30.316;2023-04-06T12:12:10;102765.88;;;23.82;26.84
75855;BME280;64502;59.976;30.316;2023-04-06T12:14:36;102760.06;;;23.98;26.69
75855;BME280;64502;59.976;30.316;2023-04-06T12:17:01;102760.31;;;24.59;26.45
75855;BME280;64502;59.976;30.316;2023-04-06T12:19:27;102756.63;;;24.61;25.85
75855;BME280;64502;59.976;30.316;2023-04-06T12:21:53;102758.34;;;24.62;25.08
75855;BME280;64502;59.976;30.316;2023-04-06T12:24:19;102753.78;;;24.83;25.99
75855;BME280;64502;59.976;30.316;2023-04-06T12:26:45;102751.69;;;24.66;25.26
75855;BME280;64502;59.976;30.316;2023-04-06T12:29:10;102754.66;;;24.84;25.11
75855;BME280;64502;59.976;30.316;2023-04-06T12:31:38;102748.97;;;25.38;24.82
75855;BME280;64502;59.976;30.316;2023-04-06T12:34:06;102744.56;;;26.07;24.06
75855;BME280;64502;59.976;30.316;2023-04-06T12:36:32;102740.78;;;26.86;22.65
75855;BME280;64502;59.976;30.316;2023-04-06T12:38:58;102749.56;;;27.07;22.77
75855;BME280;64502;59.976;30.316;2023-04-06T12:41:25;102744.22;;;27.25;22.24
75855;BME280;64502;59.976;30.316;2023-04-06T12:43:51;102739.81;;;27.14;21.27
75855;BME280;64502;59.976;30.316;2023-04-06T12:46:16;102736.69;;;26.72;21.42
75855;BME280;64502;59.976;30.316;2023-04-06T12:48:42;102744.56;;;27.12;21.09
75855;BME280;64502;59.976;30.316;2023-04-06T12:51:07;102741.03;;;27.02;21.42